createdAt,value
2017-11-23T00:02:21.825Z,8.73
2017-11-23T00:05:28.328Z,9.77
2017-11-23T00:08:37.142Z,8.93
2017-11-23T00:11:42.297Z,9.63
2017-11-23T00:18:26.872Z,7.97
2017-11-23T00:21:31.866Z,7.77
2017-11-23T00:24:38.148Z,6.90
2017-11-23T00:27:43.936Z,6.20
2017-11-23T00:30:48.916Z,6.57
2017-11-23T00:33:54.546Z,6.27
2017-11-23T00:37:00.988Z,6.63
2017-11-23T00:40:06.130Z,6.80
2017-11-23T00:43:11.324Z,6.53
2017-11-23T00:46:18.269Z,6.23
2017-11-23T00:49:24.672Z,6.30
2017-11-23T00:52:29.871Z,6.23
2017-11-23T00:55:35.616Z,6.57
2017-11-23T00:58:40.656Z,6.73
2017-11-23T01:01:46.101Z,7.67
2017-11-23T01:04:57.016Z,7.10
2017-11-23T01:08:01.961Z,6.57
2017-11-23T01:11:06.843Z,6.30
2017-11-23T01:14:13.045Z,6.50
2017-11-23T01:17:19.517Z,6.20
2017-11-23T01:20:24.536Z,6.83
2017-11-23T01:23:29.463Z,6.00
2017-11-23T01:26:35.482Z,7.00
2017-11-23T01:29:40.826Z,10.27
2017-11-23T01:32:46.164Z,10.20
2017-11-23T01:35:51.317Z,8.30
2017-11-23T01:38:56.989Z,9.00
2017-11-23T01:42:02.742Z,7.60
2017-11-23T01:45:08.965Z,6.50
2017-11-23T01:48:14.496Z,7.00
2017-11-23T01:51:19.698Z,6.50
2017-11-23T01:54:24.536Z,6.37
2017-11-23T01:57:29.429Z,6.10
2017-11-23T02:00:34.365Z,6.80
2017-11-23T02:03:39.576Z,6.80
2017-11-23T02:06:44.942Z,6.90
2017-11-23T02:09:50.480Z,6.87
2017-11-23T02:12:55.381Z,6.87
2017-11-23T02:16:01.001Z,6.43
2017-11-23T02:19:06.778Z,6.90
2017-11-23T02:22:11.955Z,6.83
2017-11-23T02:25:16.722Z,6.77
2017-11-23T02:28:21.850Z,7.73
2017-11-23T02:31:26.908Z,6.53
2017-11-23T02:34:33.162Z,7.10
2017-11-23T02:37:38.966Z,8.13
2017-11-23T02:40:44.493Z,6.67
2017-11-23T02:43:50.203Z,7.33
2017-11-23T02:46:55.049Z,6.93
2017-11-23T02:50:00.047Z,6.67
2017-11-23T02:53:05.441Z,6.70
2017-11-23T02:56:11.164Z,7.23
2017-11-23T02:59:17.441Z,7.60
2017-11-23T03:02:22.305Z,7.87
2017-11-23T03:05:27.861Z,7.93
2017-11-23T03:08:33.585Z,8.27
2017-11-23T03:11:38.444Z,7.63
2017-11-23T03:14:48.069Z,8.03
2017-11-23T03:17:53.757Z,8.53
2017-11-23T03:20:59.336Z,7.00
2017-11-23T03:24:04.365Z,6.53
2017-11-23T03:27:09.641Z,7.50
2017-11-23T03:30:15.185Z,8.13
2017-11-23T03:33:20.477Z,8.07
2017-11-23T03:36:26.345Z,7.27
2017-11-23T03:39:31.395Z,7.30
2017-11-23T03:42:37.377Z,7.83
2017-11-23T03:45:42.560Z,7.47
2017-11-23T03:48:48.085Z,6.97
2017-11-23T03:51:53.765Z,7.07
2017-11-23T03:54:58.884Z,7.20
2017-11-23T03:58:05.272Z,7.93
2017-11-23T04:01:11.316Z,7.20
2017-11-23T04:04:16.392Z,6.73
2017-11-23T04:07:21.434Z,7.27
2017-11-23T04:10:27.073Z,7.90
2017-11-23T04:13:32.728Z,8.50
2017-11-23T04:16:37.648Z,7.77
2017-11-23T04:19:42.763Z,8.97
2017-11-23T04:22:48.215Z,9.70
2017-11-23T04:25:53.896Z,8.00
2017-11-23T04:28:59.054Z,7.63
2017-11-23T04:32:04.768Z,7.80
2017-11-23T04:35:10.212Z,7.07
2017-11-23T04:38:16.249Z,7.50
2017-11-23T04:41:22.180Z,7.50
2017-11-23T04:44:27.836Z,7.43
2017-11-23T04:47:32.930Z,7.33
2017-11-23T04:50:38.387Z,8.03
2017-11-23T04:53:43.700Z,7.80
2017-11-23T04:56:48.890Z,6.20
2017-11-23T04:59:57.773Z,6.50
2017-11-23T05:03:03.289Z,6.93
2017-11-23T05:06:08.911Z,6.33
2017-11-23T05:09:13.633Z,6.17
2017-11-23T05:12:19.328Z,5.70
2017-11-23T05:15:24.798Z,6.43
2017-11-23T05:18:30.403Z,5.97
2017-11-23T05:21:35.153Z,6.20
2017-11-23T05:24:42.184Z,6.27
2017-11-23T05:27:47.685Z,5.90
2017-11-23T05:30:55.617Z,6.53
2017-11-23T05:34:00.763Z,6.10
2017-11-23T05:37:06.337Z,6.20
2017-11-23T05:40:11.632Z,6.00
2017-11-23T05:43:16.674Z,6.17
2017-11-23T05:46:21.468Z,6.10
2017-11-23T05:49:28.468Z,5.87
2017-11-23T05:52:33.626Z,5.77
2017-11-23T05:55:38.776Z,5.90
2017-11-23T05:58:43.628Z,6.30
2017-11-23T06:01:49.311Z,6.70
2017-11-23T06:04:54.916Z,6.33
2017-11-23T06:08:01.013Z,6.90
2017-11-23T06:11:05.948Z,7.33
2017-11-23T06:14:12.628Z,6.83
2017-11-23T06:17:18.084Z,6.33
2017-11-23T06:20:23.757Z,6.40
2017-11-23T06:23:28.845Z,6.70
2017-11-23T06:26:33.694Z,7.93
2017-11-23T06:29:39.344Z,7.20
2017-11-23T06:32:45.113Z,8.23
2017-11-23T06:35:50.335Z,7.90
2017-11-23T06:38:56.153Z,7.53
2017-11-23T06:42:01.489Z,7.67
2017-11-23T06:45:10.649Z,6.73
2017-11-23T06:48:16.637Z,6.60
2017-11-23T06:51:22.404Z,6.90
2017-11-23T06:54:28.060Z,5.80
2017-11-23T06:57:35.121Z,6.13
2017-11-23T07:00:40.621Z,6.90
2017-11-23T07:03:45.460Z,6.60
2017-11-23T07:06:51.290Z,7.50
2017-11-23T07:09:56.369Z,6.50
2017-11-23T07:13:02.465Z,6.77
2017-11-23T07:16:08.017Z,6.63
2017-11-23T07:19:12.776Z,5.87
2017-11-23T07:22:18.689Z,6.23
2017-11-23T07:25:24.132Z,6.07
2017-11-23T07:28:28.921Z,5.87
2017-11-23T07:31:33.676Z,5.77
2017-11-23T07:34:39.433Z,5.50
2017-11-23T07:37:44.565Z,6.73
2017-11-23T07:40:49.876Z,5.70
2017-11-23T07:43:54.825Z,6.63
2017-11-23T07:47:00.254Z,5.30
2017-11-23T07:50:05.242Z,5.13
2017-11-23T07:53:11.365Z,4.93
2017-11-23T07:56:17.845Z,5.70
2017-11-23T07:59:22.977Z,4.87
2017-11-23T08:02:28.017Z,5.37
2017-11-23T08:05:33.428Z,67.00
2017-11-23T08:08:38.788Z,24.10
2017-11-23T08:11:43.993Z,31.60
2017-11-23T08:14:48.786Z,9.00
2017-11-23T08:17:55.195Z,8.27
2017-11-23T08:21:00.192Z,7.63
2017-11-23T08:24:06.414Z,7.80
2017-11-23T08:27:12.877Z,7.37
2017-11-23T08:30:18.553Z,7.10
2017-11-23T08:33:25.243Z,8.57
2017-11-23T08:36:31.252Z,17.80
2017-11-23T08:39:36.570Z,82.97
2017-11-23T08:42:42.362Z,79.07
2017-11-23T08:45:47.117Z,56.17
2017-11-23T08:48:52.504Z,47.20
2017-11-23T08:51:57.708Z,21.63
2017-11-23T08:55:03.905Z,12.10
2017-11-23T08:58:09.109Z,12.03
2017-11-23T09:01:14.620Z,11.30
2017-11-23T09:04:20.301Z,12.90
2017-11-23T09:07:25.419Z,11.17
2017-11-23T09:10:30.461Z,9.80
2017-11-23T09:13:38.343Z,10.20
2017-11-23T09:16:43.063Z,13.70
2017-11-23T09:19:47.976Z,9.80
2017-11-23T09:22:53.365Z,9.20
2017-11-23T09:25:58.549Z,7.00
2017-11-23T09:29:03.294Z,6.90
2017-11-23T09:32:09.509Z,6.30
2017-11-23T09:35:14.489Z,6.67
2017-11-23T09:38:20.264Z,6.83
2017-11-23T09:41:25.825Z,6.50
2017-11-23T09:44:31.498Z,7.50
2017-11-23T09:47:36.729Z,6.83
2017-11-23T09:50:42.816Z,6.97
2017-11-23T09:53:47.785Z,6.80
2017-11-23T09:56:53.200Z,7.27
2017-11-23T09:59:58.860Z,6.30
2017-11-23T10:03:05.445Z,6.50
2017-11-23T10:06:10.913Z,6.60
2017-11-23T10:09:15.663Z,6.27
2017-11-23T10:12:20.673Z,14.13
2017-11-23T10:15:25.953Z,11.30
2017-11-23T10:18:30.968Z,5.13
2017-11-23T10:21:36.680Z,3.00
2017-11-23T10:24:41.936Z,3.60
2017-11-23T10:27:46.801Z,3.00
2017-11-23T10:30:51.796Z,2.90
2017-11-23T10:33:58.192Z,3.00
2017-11-23T10:37:03.477Z,2.60
2017-11-23T10:40:08.616Z,2.97
2017-11-23T10:43:14.069Z,2.40
2017-11-23T10:46:19.619Z,2.33
2017-11-23T10:49:25.060Z,2.87
2017-11-23T10:52:30.905Z,2.70
2017-11-23T10:55:36.669Z,2.50
2017-11-23T10:58:42.982Z,2.70
2017-11-23T11:01:48.104Z,2.57
2017-11-23T11:04:52.953Z,2.60
2017-11-23T11:07:58.309Z,3.40
2017-11-23T11:11:03.997Z,2.70
2017-11-23T11:14:08.982Z,2.83
2017-11-23T11:17:14.485Z,2.87
2017-11-23T11:20:19.930Z,2.77
2017-11-23T11:23:24.817Z,2.90
2017-11-23T11:26:29.934Z,2.53
2017-11-23T11:29:34.905Z,3.00
2017-11-23T11:32:40.357Z,2.10
2017-11-23T11:35:45.353Z,2.83
2017-11-23T11:38:50.641Z,2.50
2017-11-23T11:41:56.557Z,2.83
2017-11-23T11:45:01.919Z,2.50
2017-11-23T11:48:10.678Z,2.53
2017-11-23T11:51:16.389Z,2.77
2017-11-23T11:54:21.170Z,2.60
2017-11-23T11:57:26.177Z,3.20
2017-11-23T12:00:32.876Z,3.07
2017-11-23T12:03:37.805Z,3.83
2017-11-23T12:06:44.840Z,2.43
2017-11-23T12:09:50.081Z,2.27
2017-11-23T12:12:54.937Z,3.30
2017-11-23T12:16:12.217Z,2.43
2017-11-23T12:19:24.256Z,3.97
2017-11-23T12:22:41.760Z,2.77
2017-11-23T12:25:58.864Z,2.50
2017-11-23T12:29:16.562Z,2.70
2017-11-23T12:32:22.289Z,2.73
2017-11-23T12:35:27.677Z,2.67
2017-11-23T12:38:33.712Z,2.77
2017-11-23T12:41:39.420Z,2.67
2017-11-23T12:44:44.488Z,2.40
2017-11-23T12:47:50.764Z,3.00
2017-11-23T12:50:56.854Z,3.00
2017-11-23T12:54:02.630Z,2.77
2017-11-23T12:57:08.921Z,2.57
2017-11-23T13:00:13.954Z,2.57
2017-11-23T13:03:19.421Z,2.80
2017-11-23T13:06:25.488Z,2.40
2017-11-23T13:09:32.020Z,2.30
2017-11-23T13:12:37.580Z,2.63
2017-11-23T13:15:43.251Z,2.87
2017-11-23T13:18:48.842Z,2.47
2017-11-23T13:21:54.440Z,2.50
2017-11-23T13:25:01.038Z,2.60
2017-11-23T13:28:07.802Z,3.20
2017-11-23T13:31:16.001Z,3.83
2017-11-23T13:34:21.428Z,3.43
2017-11-23T13:37:27.709Z,3.53
2017-11-23T13:40:33.987Z,3.13
2017-11-23T13:43:39.648Z,2.40
2017-11-23T13:46:46.183Z,2.27
2017-11-23T13:49:51.927Z,2.80
2017-11-23T13:52:58.121Z,2.30
2017-11-23T13:56:06.846Z,3.77
2017-11-23T13:59:11.805Z,5.53
2017-11-23T14:02:16.949Z,6.10
2017-11-23T14:05:22.200Z,6.73
2017-11-23T14:08:28.280Z,4.20
2017-11-23T14:11:33.922Z,4.07
2017-11-23T14:14:39.769Z,3.73
2017-11-23T14:17:44.964Z,3.10
2017-11-23T14:20:50.865Z,2.27
2017-11-23T14:23:56.344Z,2.90
2017-11-23T14:27:02.088Z,2.50
2017-11-23T14:30:07.740Z,2.90
2017-11-23T14:33:12.594Z,2.70
2017-11-23T14:36:18.345Z,2.40
2017-11-23T14:39:23.921Z,2.30
2017-11-23T14:42:28.653Z,2.60
2017-11-23T14:45:33.974Z,2.50
2017-11-23T14:48:39.051Z,2.77
2017-11-23T14:51:45.452Z,2.27
2017-11-23T14:54:50.678Z,2.00
2017-11-23T14:57:55.575Z,2.40
2017-11-23T15:01:01.093Z,2.70
2017-11-23T15:04:07.673Z,2.43
2017-11-23T15:07:12.605Z,2.60
2017-11-23T15:10:19.057Z,2.13
2017-11-23T15:13:24.242Z,2.20
2017-11-23T15:16:30.033Z,2.30
2017-11-23T15:19:35.834Z,3.17
2017-11-23T15:22:41.158Z,3.43
2017-11-23T15:25:46.281Z,2.97
2017-11-23T15:28:51.262Z,3.17
2017-11-23T15:31:58.032Z,3.63
2017-11-23T15:35:02.999Z,2.77
2017-11-23T15:38:08.209Z,3.20
2017-11-23T15:41:14.253Z,2.50
2017-11-23T15:44:19.069Z,2.80
2017-11-23T15:47:25.237Z,2.70
2017-11-23T15:50:30.656Z,2.90
2017-11-23T15:53:35.594Z,3.47
2017-11-23T15:56:41.236Z,2.57
2017-11-23T15:59:46.301Z,2.80
2017-11-23T16:02:51.132Z,3.77
2017-11-23T16:05:56.113Z,3.90
2017-11-23T16:09:01.842Z,3.50
2017-11-23T16:12:07.501Z,3.50
2017-11-23T16:15:14.095Z,2.83
2017-11-23T16:18:19.376Z,5.33
2017-11-23T16:21:25.054Z,4.57
2017-11-23T16:24:30.724Z,4.80
2017-11-23T16:27:35.658Z,3.87
2017-11-23T16:30:40.944Z,3.43
2017-11-23T16:33:52.493Z,3.40
2017-11-23T16:36:57.880Z,4.07
2017-11-23T16:40:03.918Z,4.20
2017-11-23T16:43:15.493Z,5.07
2017-11-23T16:46:27.274Z,3.70
2017-11-23T16:49:38.614Z,3.10
2017-11-23T16:52:50.925Z,3.10
2017-11-23T16:56:08.065Z,5.10
2017-11-23T16:59:20.333Z,4.17
2017-11-23T17:02:32.214Z,3.67
2017-11-23T17:05:42.961Z,3.70
2017-11-23T17:08:53.244Z,3.53
2017-11-23T17:12:04.640Z,3.40
2017-11-23T17:15:19.677Z,4.40
2017-11-23T17:22:12.977Z,3.10
2017-11-23T17:25:18.549Z,2.83
2017-11-23T17:28:23.462Z,3.73
2017-11-23T17:31:30.034Z,3.33
2017-11-23T17:34:35.319Z,2.97
2017-11-23T17:37:40.272Z,2.63
2017-11-23T17:40:46.648Z,3.40
2017-11-23T17:43:52.957Z,3.57
2017-11-23T17:47:00.421Z,3.17
2017-11-23T17:50:12.507Z,3.63
2017-11-23T17:53:17.656Z,3.93
2017-11-23T17:56:23.066Z,3.90
2017-11-23T17:59:27.973Z,4.30
2017-11-23T18:02:40.428Z,3.80
2017-11-23T18:05:46.278Z,4.27
2017-11-23T18:08:56.695Z,3.30
2017-11-23T18:12:01.573Z,3.30
2017-11-23T18:15:07.300Z,3.80
2017-11-23T18:18:12.696Z,3.73
2017-11-23T18:21:21.176Z,4.27
2017-11-23T18:24:29.068Z,3.33
2017-11-23T18:27:39.886Z,3.90
2017-11-23T18:30:45.362Z,3.50
2017-11-23T18:33:50.283Z,3.00
2017-11-23T18:36:55.454Z,3.50
2017-11-23T18:40:01.210Z,4.63
2017-11-23T18:43:10.936Z,4.33
2017-11-23T18:46:17.151Z,4.17
2017-11-23T18:49:22.989Z,3.90
2017-11-23T18:52:28.881Z,4.40
2017-11-23T18:55:33.736Z,3.63
2017-11-23T18:58:39.933Z,4.17
2017-11-23T19:01:51.310Z,4.60
2017-11-23T19:04:57.013Z,5.50
2017-11-23T19:08:02.712Z,4.63
2017-11-23T19:11:07.971Z,3.50
2017-11-23T19:14:13.651Z,3.37
2017-11-23T19:17:19.240Z,4.20
2017-11-23T19:20:24.738Z,4.40
2017-11-23T19:23:29.913Z,3.33
2017-11-23T19:26:35.641Z,3.80
2017-11-23T19:29:41.367Z,4.30
2017-11-23T19:32:46.419Z,3.73
2017-11-23T19:35:51.733Z,3.20
2017-11-23T19:38:56.881Z,3.33
2017-11-23T19:42:01.960Z,2.97
2017-11-23T19:45:07.447Z,3.70
2017-11-23T19:48:12.440Z,3.37
2017-11-23T19:51:17.685Z,3.57
2017-11-23T19:54:22.860Z,4.90
2017-11-23T19:57:28.749Z,4.50
2017-11-23T20:00:33.719Z,3.70
2017-11-23T20:03:38.640Z,3.60
2017-11-23T20:06:44.645Z,3.67
2017-11-23T20:09:51.391Z,3.77
2017-11-23T20:13:00.022Z,3.43
2017-11-23T20:16:06.640Z,3.30
2017-11-23T20:19:13.166Z,3.80
2017-11-23T20:22:19.291Z,3.30
2017-11-23T20:25:24.656Z,3.33
2017-11-23T20:28:30.112Z,3.07
2017-11-23T20:31:35.094Z,3.43
2017-11-23T20:34:41.889Z,3.23
2017-11-23T20:37:48.028Z,3.20
2017-11-23T20:40:53.648Z,2.87
2017-11-23T20:43:59.515Z,3.63
2017-11-23T20:47:04.428Z,3.60
2017-11-23T20:50:15.763Z,3.30
2017-11-23T20:53:20.893Z,3.20
2017-11-23T20:56:26.771Z,3.93
2017-11-23T20:59:32.345Z,3.60
2017-11-23T21:02:37.897Z,3.70
2017-11-23T21:05:43.367Z,3.23
2017-11-23T21:08:49.995Z,4.07
2017-11-23T21:11:54.852Z,4.03
2017-11-23T21:15:06.701Z,3.73
2017-11-23T21:18:12.791Z,3.20
2017-11-23T21:21:18.020Z,3.63
2017-11-23T21:24:23.714Z,3.30
2017-11-23T21:27:30.381Z,3.73
2017-11-23T21:30:36.708Z,3.67
2017-11-23T21:33:42.564Z,3.63
2017-11-23T21:36:47.892Z,3.40
2017-11-23T21:39:53.308Z,4.00
2017-11-23T21:42:59.364Z,3.50
2017-11-23T21:46:07.798Z,3.43
2017-11-23T21:49:15.306Z,3.10
2017-11-23T21:52:21.800Z,3.70
2017-11-23T21:55:27.343Z,4.17
2017-11-23T21:58:33.894Z,3.90
2017-11-23T22:01:39.665Z,3.83
2017-11-23T22:04:45.900Z,4.13
2017-11-23T22:07:56.072Z,4.20
2017-11-23T22:11:01.476Z,5.70
2017-11-23T22:14:07.105Z,7.13
2017-11-23T22:17:12.433Z,6.03
2017-11-23T22:20:17.816Z,5.37
2017-11-23T22:23:23.064Z,5.50
2017-11-23T22:26:29.030Z,6.37
2017-11-23T22:29:34.178Z,7.60
2017-11-23T22:32:40.767Z,7.10
2017-11-23T22:35:45.980Z,7.63
2017-11-23T22:38:51.707Z,5.47
2017-11-23T22:41:57.473Z,7.23
2017-11-23T22:45:03.744Z,5.63
2017-11-23T22:48:10.345Z,5.90
2017-11-23T22:51:19.674Z,5.10
2017-11-23T22:54:26.596Z,5.27
2017-11-23T22:57:31.396Z,5.00
2017-11-23T23:00:36.468Z,5.60
2017-11-23T23:03:41.580Z,4.50
2017-11-23T23:06:47.160Z,4.87
2017-11-23T23:09:56.589Z,5.00
2017-11-23T23:13:01.446Z,5.20
2017-11-23T23:16:07.024Z,4.37
2017-11-23T23:19:16.764Z,4.50
2017-11-23T23:22:23.165Z,4.40
2017-11-23T23:25:37.539Z,4.27
2017-11-23T23:28:42.564Z,4.37
2017-11-23T23:31:47.924Z,3.80
2017-11-23T23:34:54.352Z,3.60
2017-11-23T23:38:00.154Z,3.93
2017-11-23T23:41:06.101Z,4.70
2017-11-23T23:44:11.843Z,4.10
2017-11-23T23:47:17.620Z,3.83
2017-11-23T23:50:22.537Z,4.10
2017-11-23T23:53:28.609Z,4.10
2017-11-23T23:56:34.736Z,4.30
2017-11-23T23:59:40.552Z,4.07
